Capita Jack — EBUF — position and weather

sailwx.info

Track history (hours):
 
Tides and Currents Weather Stations Pressure Air Temp Water Temp Dewpoint Dewpoint Depression Visibility Wind Speed Wind Dir Waves Ship Positions

Capita Jack

Last reported at 2017-Oct-28 17:11 UTC. Time now 2017-Nov-18 03:05 UTC.
Position N 38°59' E 001°32'.
Warning: this ship's position is 20 days out of date.

Length 21 m.

Type: Passenger vessel. MMSI: 224147000.

Date/timePositionNaut miles runAvg speedWind from/ knotsBaromVisibWave heightAir tempDewpointWater temp
2017-Oct-28 17:11N 38°59' E 001°32'1 5.8
2017-Oct-28 17:00N 38°59' E 001°34'1 2.6
2017-Oct-28 16:30N 38°59' E 001°32'610.7
2017-Oct-28 15:59N 38°54' E 001°29'1 0.2
2017-Oct-28 08:42N 38°53' E 001°29'514.2
2017-Oct-28 08:22N 38°57' E 001°32'2 5.5
2017-Oct-28 07:59N 38°59' E 001°32'2 3.5
2017-Oct-28 07:26N 38°59' E 001°35'2 4.0
2017-Oct-28 07:00N 38°59' E 001°32'0 0.0
2017-Oct-27 17:18N 38°59' E 001°32'1 2.7
2017-Oct-27 16:46N 38°59' E 001°34'2 6.2
2017-Oct-27 16:30N 38°59' E 001°32'712.9
2017-Oct-27 15:59N 38°53' E 001°29'2 0.3
2017-Oct-27 09:14N 38°51' E 001°28'413.9
2017-Oct-27 08:59N 38°54' E 001°30'510.5
2017-Oct-27 08:30N 38°59' E 001°32'1 1.7
2017-Oct-27 07:37N 38°59' E 001°34'212.2
2017-Oct-27 07:30N 38°59' E 001°32'0 0.5
2017-Oct-27 06:58N 38°59' E 001°32'0 0.0
2017-Oct-26 17:30N 38°59' E 001°32'2 2.9
2017-Oct-26 16:54N 38°59' E 001°35'2 5.1
2017-Oct-26 16:30N 38°59' E 001°32'713.5
2017-Oct-26 16:00N 38°53' E 001°29'1 0.2
2017-Oct-26 09:16N 38°52' E 001°28'413.6
2017-Oct-26 09:00N 38°55' E 001°30'5 8.8
2017-Oct-26 08:28N 38°59' E 001°32'2 1.3
2017-Oct-26 07:05N 38°59' E 001°34'1 6.7
2017-Oct-26 07:00N 38°59' E 001°34'1 2.0
2017-Oct-26 06:29N 38°59' E 001°32'0 0.0
2017-Oct-26 05:59N 38°59' E 001°32'0 0.0
2017-Oct-25 17:20N 38°59' E 001°32'1 2.5
2017-Oct-25 16:44N 38°59' E 001°34'2 7.4
2017-Oct-25 16:30N 38°59' E 001°32'612.7
2017-Oct-25 16:00N 38°53' E 001°29'2 0.3
2017-Oct-25 09:13N 38°51' E 001°28'313.9
2017-Oct-25 09:00N 38°54' E 001°30'510.7
2017-Oct-25 08:30N 38°59' E 001°32'2 3.3
2017-Oct-25 07:49N 38°60' E 001°35'2 7.4
2017-Oct-25 07:30N 38°59' E 001°32'0 0.4
2017-Oct-25 07:00N 38°59' E 001°32'0 0.0
2017-Oct-24 17:22N 38°59' E 001°32'1 2.7
2017-Oct-24 16:50N 38°59' E 001°34'2 4.9
2017-Oct-24 16:30N 38°59' E 001°32'713.1
2017-Oct-24 16:00N 38°53' E 001°29'3 0.4
2017-Oct-24 09:19N 38°51' E 001°27'413.4
2017-Oct-24 09:00N 38°54' E 001°30'510.0
2017-Oct-24 08:30N 38°59' E 001°32'2 3.3
2017-Oct-24 07:48N 38°60' E 001°35'2 6.7
2017-Oct-24 07:29N 38°59' E 001°32'0 0.0
2017-Oct-24 06:58N 38°59' E 001°32'0 0.0
2017-Oct-23 17:15N 38°59' E 001°32'2 6.5
2017-Oct-23 17:00N 38°59' E 001°35'2 3.7
2017-Oct-23 16:30N 38°59' E 001°32'713.1
2017-Oct-23 16:00N 38°53' E 001°29'0 0.1
2017-Oct-23 09:04N 38°53' E 001°29'214.3
2017-Oct-23 08:58N 38°54' E 001°30'511.1
2017-Oct-23 08:30N 38°59' E 001°32'2 1.6
2017-Oct-23 07:27N 38°59' E 001°34'2 3.2
2017-Oct-23 06:59N 38°59' E 001°32'0 0.0
2017-Oct-22 17:23N 38°59' E 001°32'2 3.1
2017-Oct-22 16:50N 38°59' E 001°35'3 7.8
2017-Oct-22 16:29N 38°57' E 001°32'510.5
2017-Oct-22 15:59N 38°53' E 001°29'1 0.1
2017-Oct-22 08:43N 38°52' E 001°28'610.5
2017-Oct-22 08:11N 38°57' E 001°32'2 6.4
2017-Oct-22 07:55N 38°59' E 001°32'2 3.0
2017-Oct-22 07:21N 38°59' E 001°34'2 4.3
2017-Oct-22 07:00N 38°59' E 001°32'0 0.0
2017-Oct-21 17:27N 38°59' E 001°32'2 2.9
2017-Oct-21 16:55N 38°59' E 001°34'3 5.2
2017-Oct-21 16:19N 38°57' E 001°32'514.1
2017-Oct-21 15:57N 38°52' E 001°29'0 0.1
2017-Oct-21 08:45N 38°53' E 001°29'513.8
2017-Oct-21 08:25N 38°57' E 001°32'2 5.4
2017-Oct-21 08:00N 38°59' E 001°32'2 2.9
2017-Oct-21 07:23N 38°59' E 001°35'2 4.2
2017-Oct-21 07:00N 38°59' E 001°32'0 0.0
2017-Oct-20 17:29N 38°59' E 001°32'2 3.7
2017-Oct-20 16:55N 38°60' E 001°35'3 6.3
2017-Oct-20 16:30N 38°58' E 001°32'713.2
2017-Oct-20 16:00N 38°52' E 001°28'0 0.0
2017-Oct-20 09:08N 38°52' E 001°29'213.6
2017-Oct-20 09:00N 38°54' E 001°30'510.7
2017-Oct-20 08:30N 38°59' E 001°32'2 1.9
2017-Oct-20 07:34N 38°59' E 001°35'113.6
2017-Oct-20 07:30N 38°59' E 001°34'1 0.1
2017-Oct-19 15:55N 38°59' E 001°32'0 0.0
2017-Oct-19 15:28N 38°59' E 001°32'0 0.0
2017-Oct-19 14:59N 38°59' E 001°32'0 0.0
2017-Oct-19 11:23N 38°59' E 001°32'0 0.0
2017-Oct-19 10:59N 38°59' E 001°32'0 0.0
2017-Oct-19 10:29N 38°59' E 001°32'0 0.0
2017-Oct-19 09:59N 38°59' E 001°32'0 0.0
2017-Oct-19 09:29N 38°59' E 001°32'0 0.0
2017-Oct-19 08:59N 38°59' E 001°32'0 0.4
2017-Oct-19 08:29N 38°59' E 001°32'2 3.2
2017-Oct-19 07:53N 38°59' E 001°35'2 4.3
2017-Oct-19 07:29N 38°59' E 001°32'0 0.0
2017-Oct-19 06:59N 38°59' E 001°32'0 0.0
2017-Oct-19 06:29N 38°59' E 001°32'0 0.0
2017-Oct-19 05:59N 38°59' E 001°32'  
Track history (hours):
 
Tides and Currents Weather Stations Pressure Air Temp Water Temp Dewpoint Dewpoint Depression Visibility Wind Speed Wind Dir Waves Ship Positions

Capita Jack

Last reported at 2017-Oct-28 17:11 UTC. Time now 2017-Nov-18 03:05 UTC.
Position N 38°59' E 001°32'.
Warning: this ship's position is 20 days out of date.

Length 21 m.

Type: Passenger vessel. MMSI: 224147000.

Date/timePositionNaut miles runAvg speedWind from/ knotsBaromVisibWave heightAir tempDewpointWater temp
2017-Oct-28 17:11N 38°59' E 001°32'1 5.8
2017-Oct-28 17:00N 38°59' E 001°34'1 2.6
2017-Oct-28 16:30N 38°59' E 001°32'610.7
2017-Oct-28 15:59N 38°54' E 001°29'1 0.2
2017-Oct-28 08:42N 38°53' E 001°29'514.2
2017-Oct-28 08:22N 38°57' E 001°32'2 5.5
2017-Oct-28 07:59N 38°59' E 001°32'2 3.5
2017-Oct-28 07:26N 38°59' E 001°35'2 4.0
2017-Oct-28 07:00N 38°59' E 001°32'0 0.0
2017-Oct-27 17:18N 38°59' E 001°32'1 2.7
2017-Oct-27 16:46N 38°59' E 001°34'2 6.2
2017-Oct-27 16:30N 38°59' E 001°32'712.9
2017-Oct-27 15:59N 38°53' E 001°29'2 0.3
2017-Oct-27 09:14N 38°51' E 001°28'413.9
2017-Oct-27 08:59N 38°54' E 001°30'510.5
2017-Oct-27 08:30N 38°59' E 001°32'1 1.7
2017-Oct-27 07:37N 38°59' E 001°34'212.2
2017-Oct-27 07:30N 38°59' E 001°32'0 0.5
2017-Oct-27 06:58N 38°59' E 001°32'0 0.0
2017-Oct-26 17:30N 38°59' E 001°32'2 2.9
2017-Oct-26 16:54N 38°59' E 001°35'2 5.1
2017-Oct-26 16:30N 38°59' E 001°32'713.5
2017-Oct-26 16:00N 38°53' E 001°29'1 0.2
2017-Oct-26 09:16N 38°52' E 001°28'413.6
2017-Oct-26 09:00N 38°55' E 001°30'5 8.8
2017-Oct-26 08:28N 38°59' E 001°32'2 1.3
2017-Oct-26 07:05N 38°59' E 001°34'1 6.7
2017-Oct-26 07:00N 38°59' E 001°34'1 2.0
2017-Oct-26 06:29N 38°59' E 001°32'0 0.0
2017-Oct-26 05:59N 38°59' E 001°32'0 0.0
2017-Oct-25 17:20N 38°59' E 001°32'1 2.5
2017-Oct-25 16:44N 38°59' E 001°34'2 7.4
2017-Oct-25 16:30N 38°59' E 001°32'612.7
2017-Oct-25 16:00N 38°53' E 001°29'2 0.3
2017-Oct-25 09:13N 38°51' E 001°28'313.9
2017-Oct-25 09:00N 38°54' E 001°30'510.7
2017-Oct-25 08:30N 38°59' E 001°32'2 3.3
2017-Oct-25 07:49N 38°60' E 001°35'2 7.4
2017-Oct-25 07:30N 38°59' E 001°32'0 0.4
2017-Oct-25 07:00N 38°59' E 001°32'0 0.0
2017-Oct-24 17:22N 38°59' E 001°32'1 2.7
2017-Oct-24 16:50N 38°59' E 001°34'2 4.9
2017-Oct-24 16:30N 38°59' E 001°32'713.1
2017-Oct-24 16:00N 38°53' E 001°29'3 0.4
2017-Oct-24 09:19N 38°51' E 001°27'413.4
2017-Oct-24 09:00N 38°54' E 001°30'510.0
2017-Oct-24 08:30N 38°59' E 001°32'2 3.3
2017-Oct-24 07:48N 38°60' E 001°35'2 6.7
2017-Oct-24 07:29N 38°59' E 001°32'0 0.0
2017-Oct-24 06:58N 38°59' E 001°32'0 0.0
2017-Oct-23 17:15N 38°59' E 001°32'2 6.5
2017-Oct-23 17:00N 38°59' E 001°35'2 3.7
2017-Oct-23 16:30N 38°59' E 001°32'713.1
2017-Oct-23 16:00N 38°53' E 001°29'0 0.1
2017-Oct-23 09:04N 38°53' E 001°29'214.3
2017-Oct-23 08:58N 38°54' E 001°30'511.1
2017-Oct-23 08:30N 38°59' E 001°32'2 1.6
2017-Oct-23 07:27N 38°59' E 001°34'2 3.2
2017-Oct-23 06:59N 38°59' E 001°32'0 0.0
2017-Oct-22 17:23N 38°59' E 001°32'2 3.1
2017-Oct-22 16:50N 38°59' E 001°35'3 7.8
2017-Oct-22 16:29N 38°57' E 001°32'510.5
2017-Oct-22 15:59N 38°53' E 001°29'1 0.1
2017-Oct-22 08:43N 38°52' E 001°28'610.5
2017-Oct-22 08:11N 38°57' E 001°32'2 6.4
2017-Oct-22 07:55N 38°59' E 001°32'2 3.0
2017-Oct-22 07:21N 38°59' E 001°34'2 4.3
2017-Oct-22 07:00N 38°59' E 001°32'0 0.0
2017-Oct-21 17:27N 38°59' E 001°32'2 2.9
2017-Oct-21 16:55N 38°59' E 001°34'3 5.2
2017-Oct-21 16:19N 38°57' E 001°32'514.1
2017-Oct-21 15:57N 38°52' E 001°29'0 0.1
2017-Oct-21 08:45N 38°53' E 001°29'513.8
2017-Oct-21 08:25N 38°57' E 001°32'2 5.4
2017-Oct-21 08:00N 38°59' E 001°32'2 2.9
2017-Oct-21 07:23N 38°59' E 001°35'2 4.2
2017-Oct-21 07:00N 38°59' E 001°32'0 0.0
2017-Oct-20 17:29N 38°59' E 001°32'2 3.7
2017-Oct-20 16:55N 38°60' E 001°35'3 6.3
2017-Oct-20 16:30N 38°58' E 001°32'713.2
2017-Oct-20 16:00N 38°52' E 001°28'0 0.0
2017-Oct-20 09:08N 38°52' E 001°29'213.6
2017-Oct-20 09:00N 38°54' E 001°30'510.7
2017-Oct-20 08:30N 38°59' E 001°32'2 1.9
2017-Oct-20 07:34N 38°59' E 001°35'113.6
2017-Oct-20 07:30N 38°59' E 001°34'1 0.1
2017-Oct-19 15:55N 38°59' E 001°32'0 0.0
2017-Oct-19 15:28N 38°59' E 001°32'0 0.0
2017-Oct-19 14:59N 38°59' E 001°32'0 0.0
2017-Oct-19 11:23N 38°59' E 001°32'0 0.0
2017-Oct-19 10:59N 38°59' E 001°32'0 0.0
2017-Oct-19 10:29N 38°59' E 001°32'0 0.0
2017-Oct-19 09:59N 38°59' E 001°32'0 0.0
2017-Oct-19 09:29N 38°59' E 001°32'0 0.0
2017-Oct-19 08:59N 38°59' E 001°32'0 0.4
2017-Oct-19 08:29N 38°59' E 001°32'2 3.2
2017-Oct-19 07:53N 38°59' E 001°35'2 4.3
2017-Oct-19 07:29N 38°59' E 001°32'0 0.0
2017-Oct-19 06:59N 38°59' E 001°32'0 0.0
2017-Oct-19 06:29N 38°59' E 001°32'0 0.0
2017-Oct-19 05:59N 38°59' E 001°32'  

Dump ship's entire track history